createdAt,value
2018-09-01T00:01:11.861Z,99.90
2018-09-01T00:03:40.021Z,99.90
2018-09-01T00:06:08.195Z,99.90
2018-09-01T00:08:36.369Z,99.90
2018-09-01T00:11:04.550Z,99.90
2018-09-01T00:13:32.701Z,99.90
2018-09-01T00:16:00.885Z,99.90
2018-09-01T00:18:29.034Z,99.90
2018-09-01T00:20:57.209Z,99.90
2018-09-01T00:23:25.399Z,99.90
2018-09-01T00:25:53.553Z,99.90
2018-09-01T00:28:21.733Z,99.90
2018-09-01T00:30:49.897Z,99.90
2018-09-01T00:33:18.066Z,99.90
2018-09-01T00:35:46.217Z,99.90
2018-09-01T00:38:19.887Z,99.90
2018-09-01T00:40:48.042Z,99.90
2018-09-01T00:43:16.206Z,99.90
2018-09-01T00:45:44.369Z,99.90
2018-09-01T00:48:12.530Z,99.90
2018-09-01T00:50:40.805Z,99.90
2018-09-01T00:53:08.939Z,99.90
2018-09-01T00:55:37.051Z,99.90
2018-09-01T00:58:05.203Z,99.90
2018-09-01T01:00:33.309Z,99.90
2018-09-01T01:03:01.442Z,99.90
2018-09-01T01:05:29.551Z,99.90
2018-09-01T01:07:57.679Z,99.90
2018-09-01T01:10:25.794Z,99.90
2018-09-01T01:12:53.927Z,99.90
2018-09-01T01:15:22.035Z,99.90
2018-09-01T01:17:50.158Z,99.90
2018-09-01T01:20:18.274Z,99.90
2018-09-01T01:22:46.453Z,99.90
2018-09-01T01:25:14.605Z,99.90
2018-09-01T01:27:42.766Z,99.90
2018-09-01T01:30:10.918Z,99.90
2018-09-01T01:32:39.093Z,99.90
2018-09-01T01:35:07.270Z,99.90
2018-09-01T01:37:36.321Z,99.90
2018-09-01T01:40:05.185Z,99.90
2018-09-01T01:42:34.195Z,99.90
2018-09-01T01:45:02.565Z,99.90
2018-09-01T01:47:30.858Z,99.90
2018-09-01T01:49:59.339Z,99.90
2018-09-01T01:52:27.467Z,99.90
2018-09-01T01:54:55.581Z,99.90
2018-09-01T01:57:23.701Z,99.90
2018-09-01T01:59:51.814Z,99.90
2018-09-01T02:02:19.959Z,99.90
2018-09-01T02:04:48.082Z,99.90
2018-09-01T02:07:16.249Z,99.90
2018-09-01T02:09:44.377Z,99.90
2018-09-01T02:12:12.497Z,99.90
2018-09-01T02:14:40.637Z,99.90
2018-09-01T02:17:08.750Z,99.90
2018-09-01T02:19:36.874Z,99.90
2018-09-01T02:22:04.993Z,99.90
2018-09-01T02:24:33.109Z,99.90
2018-09-01T02:27:01.215Z,99.90
2018-09-01T02:29:29.356Z,99.90
2018-09-01T02:31:57.483Z,99.90
2018-09-01T02:34:25.602Z,99.90
2018-09-01T02:36:53.714Z,99.90
2018-09-01T02:39:21.828Z,99.90
2018-09-01T02:41:49.942Z,99.90
2018-09-01T02:44:18.070Z,99.90
2018-09-01T02:46:46.186Z,99.90
2018-09-01T02:49:14.330Z,99.90
2018-09-01T02:51:42.537Z,99.90
2018-09-01T02:54:10.653Z,99.90
2018-09-01T02:56:38.771Z,99.90
2018-09-01T02:59:06.886Z,99.90
2018-09-01T03:01:36.993Z,99.90
2018-09-01T03:04:06.114Z,99.90
2018-09-01T03:06:47.030Z,99.90
2018-09-01T03:09:15.349Z,99.90
2018-09-01T03:11:43.457Z,99.90
2018-09-01T03:14:11.570Z,99.90
2018-09-01T03:16:39.686Z,99.90
2018-09-01T03:19:08.373Z,99.90
2018-09-01T03:21:36.742Z,99.90
2018-09-01T03:24:04.870Z,99.90
2018-09-01T03:26:32.978Z,99.90
2018-09-01T03:29:01.099Z,99.90
2018-09-01T03:31:29.219Z,99.90
2018-09-01T03:33:57.334Z,99.90
2018-09-01T03:36:25.448Z,99.90
2018-09-01T03:38:53.566Z,99.90
2018-09-01T03:41:21.690Z,99.90
2018-09-01T03:43:49.950Z,99.90
2018-09-01T03:46:18.074Z,99.90
2018-09-01T03:48:46.248Z,99.90
2018-09-01T03:51:14.534Z,99.90
2018-09-01T03:53:42.690Z,99.90
2018-09-01T03:56:10.846Z,99.90
2018-09-01T03:58:39.045Z,99.90
2018-09-01T04:01:07.214Z,99.90
2018-09-01T04:03:35.570Z,99.90
2018-09-01T04:06:03.741Z,99.90
2018-09-01T04:08:31.929Z,99.90
2018-09-01T04:11:00.082Z,99.90
2018-09-01T04:13:28.246Z,99.90
2018-09-01T04:15:56.403Z,99.90
2018-09-01T04:18:24.686Z,99.90
2018-09-01T04:20:52.853Z,99.90
2018-09-01T04:23:21.010Z,99.90
2018-09-01T04:25:49.177Z,99.90
2018-09-01T04:28:17.345Z,99.90
2018-09-01T04:30:45.510Z,99.90
2018-09-01T04:33:13.738Z,99.90
2018-09-01T04:35:41.913Z,99.90
2018-09-01T04:38:10.071Z,99.90
2018-09-01T04:40:38.247Z,99.90
2018-09-01T04:43:06.722Z,99.90
2018-09-01T04:45:34.882Z,99.90
2018-09-01T04:48:03.069Z,99.90
2018-09-01T04:50:31.202Z,99.90
2018-09-01T04:52:59.336Z,99.90
2018-09-01T04:55:27.458Z,99.90
2018-09-01T04:57:55.610Z,99.90
2018-09-01T05:00:24.061Z,99.90
2018-09-01T05:02:53.672Z,99.90
2018-09-01T05:05:21.791Z,99.90
2018-09-01T05:07:49.921Z,99.90
2018-09-01T05:10:18.939Z,99.90
2018-09-01T05:12:47.714Z,99.90
2018-09-01T05:15:15.851Z,99.90
2018-09-01T05:17:43.966Z,99.90
2018-09-01T05:20:12.110Z,99.90
2018-09-01T05:22:40.434Z,99.90
2018-09-01T05:25:08.714Z,99.90
2018-09-01T05:27:36.849Z,99.90
2018-09-01T05:30:06.266Z,99.90
2018-09-01T05:32:34.373Z,99.90
2018-09-01T05:35:02.514Z,99.90
2018-09-01T05:37:30.625Z,99.90
2018-09-01T05:39:58.738Z,99.90
2018-09-01T05:42:26.861Z,99.90
2018-09-01T05:44:54.982Z,99.90
2018-09-01T05:47:23.094Z,99.90
2018-09-01T05:49:51.254Z,99.90
2018-09-01T05:52:19.378Z,99.90
2018-09-01T05:54:47.498Z,99.90
2018-09-01T05:57:15.614Z,99.90
2018-09-01T05:59:43.742Z,99.90
2018-09-01T06:02:12.091Z,99.90
2018-09-01T06:04:40.231Z,99.90
2018-09-01T06:07:08.381Z,99.90
2018-09-01T06:09:36.511Z,99.90
2018-09-01T06:12:04.642Z,99.90
2018-09-01T06:14:32.753Z,99.90
2018-09-01T06:17:01.196Z,99.90
2018-09-01T06:19:29.312Z,99.90
2018-09-01T06:21:57.431Z,99.90
2018-09-01T06:24:25.546Z,99.90
2018-09-01T06:26:53.661Z,99.90
2018-09-01T06:29:21.788Z,99.90
2018-09-01T06:32:04.134Z,99.90
2018-09-01T06:34:32.254Z,99.90
2018-09-01T06:37:00.610Z,99.90
2018-09-01T06:39:28.722Z,99.90
2018-09-01T06:41:56.866Z,99.90
2018-09-01T06:44:25.227Z,99.90
2018-09-01T06:46:53.374Z,99.90
2018-09-01T06:49:21.503Z,99.90
2018-09-01T06:51:49.639Z,99.90
2018-09-01T06:54:17.838Z,99.90
2018-09-01T06:56:45.975Z,99.90
2018-09-01T06:59:14.085Z,99.90
2018-09-01T07:01:42.213Z,99.90
2018-09-01T07:04:10.367Z,99.90
2018-09-01T07:06:38.526Z,99.90
2018-09-01T07:09:07.530Z,99.90
2018-09-01T07:11:35.761Z,99.90
2018-09-01T07:14:03.875Z,99.90
2018-09-01T07:16:32.054Z,99.90
2018-09-01T07:19:00.182Z,99.90
2018-09-01T07:21:28.306Z,99.90
2018-09-01T07:23:56.686Z,99.90
2018-09-01T07:26:24.811Z,99.90
2018-09-01T07:28:53.017Z,99.90
2018-09-01T07:31:21.673Z,99.90
2018-09-01T07:33:49.274Z,99.90
2018-09-01T07:36:17.446Z,99.90
2018-09-01T07:38:45.554Z,99.90
2018-09-01T07:41:13.674Z,99.90
2018-09-01T07:43:41.782Z,99.90
2018-09-01T07:46:09.900Z,99.90
2018-09-01T07:48:38.010Z,99.90
2018-09-01T07:51:06.249Z,99.90
2018-09-01T07:53:34.434Z,99.90
2018-09-01T07:56:02.644Z,99.90
2018-09-01T07:58:30.818Z,99.90
2018-09-01T08:00:58.983Z,99.90
2018-09-01T08:03:27.201Z,99.90
2018-09-01T08:05:55.354Z,99.20
2018-09-01T08:08:23.530Z,98.80
2018-09-01T08:10:51.681Z,98.10
2018-09-01T08:13:19.854Z,97.80
2018-09-01T08:15:48.022Z,97.20
2018-09-01T08:18:16.182Z,96.80
2018-09-01T08:20:44.341Z,96.80
2018-09-01T08:23:12.511Z,96.40
2018-09-01T08:25:40.666Z,96.30
2018-09-01T08:28:08.898Z,96.40
2018-09-01T08:30:37.069Z,96.20
2018-09-01T08:33:05.257Z,96.00
2018-09-01T08:35:33.420Z,95.90
2018-09-01T08:38:01.821Z,95.90
2018-09-01T08:40:30.062Z,95.80
2018-09-01T08:42:58.240Z,96.00
2018-09-01T08:45:26.434Z,96.30
2018-09-01T08:47:54.564Z,95.70
2018-09-01T08:50:22.730Z,94.40
2018-09-01T08:52:50.928Z,94.50
2018-09-01T08:55:19.106Z,95.50
2018-09-01T08:57:47.277Z,95.80
2018-09-01T09:00:15.463Z,95.90
2018-09-01T09:02:43.629Z,94.90
2018-09-01T09:05:11.790Z,94.40
2018-09-01T09:07:39.959Z,95.30
2018-09-01T09:10:08.221Z,95.00
2018-09-01T09:12:36.410Z,94.40
2018-09-01T09:15:04.578Z,95.20
2018-09-01T09:17:32.773Z,95.10
2018-09-01T09:20:00.927Z,94.10
2018-09-01T09:22:29.089Z,94.70
2018-09-01T09:24:57.252Z,92.70
2018-09-01T09:27:25.418Z,91.50
2018-09-01T09:29:53.612Z,93.30
2018-09-01T09:32:21.774Z,92.40
2018-09-01T09:34:49.949Z,92.80
2018-09-01T09:37:18.130Z,92.30
2018-09-01T09:42:37.055Z,93.00
2018-09-01T09:45:05.426Z,92.80
2018-09-01T09:47:33.602Z,92.50
2018-09-01T09:50:01.790Z,92.40
2018-09-01T09:52:29.954Z,92.80
2018-09-01T09:54:58.094Z,91.40
2018-09-01T09:57:26.233Z,92.90
2018-09-01T09:59:54.382Z,91.80
2018-09-01T10:02:22.640Z,92.40
2018-09-01T10:04:50.786Z,91.80
2018-09-01T10:07:18.922Z,91.20
2018-09-01T10:09:47.078Z,92.00
2018-09-01T10:12:15.231Z,91.80
2018-09-01T10:14:43.373Z,92.40
2018-09-01T10:17:11.587Z,92.10
2018-09-01T10:19:39.767Z,93.00
2018-09-01T10:22:07.914Z,91.30
2018-09-01T10:24:36.062Z,92.70
2018-09-01T10:27:04.267Z,92.80
2018-09-01T10:29:32.363Z,92.40
2018-09-01T10:32:00.501Z,91.40
2018-09-01T10:34:28.654Z,92.80
2018-09-01T10:36:56.802Z,91.20
2018-09-01T10:39:24.968Z,91.80
2018-09-01T10:41:53.157Z,91.10
2018-09-01T10:44:21.330Z,90.00
2018-09-01T10:46:49.466Z,91.20
2018-09-01T10:49:17.627Z,90.00
2018-09-01T10:51:45.831Z,90.30
2018-09-01T10:54:14.010Z,91.10
2018-09-01T10:56:42.166Z,90.80
2018-09-01T10:59:10.473Z,91.10
2018-09-01T11:01:38.515Z,90.80
2018-09-01T11:04:06.689Z,90.50
2018-09-01T11:06:34.926Z,90.10
2018-09-01T11:09:03.158Z,90.70
2018-09-01T11:11:31.382Z,90.80
2018-09-01T11:13:59.572Z,91.10
2018-09-01T11:16:27.743Z,91.10
2018-09-01T11:18:55.914Z,90.20
2018-09-01T11:21:24.094Z,90.70
2018-09-01T11:23:52.360Z,91.30
2018-09-01T11:26:20.518Z,90.80
2018-09-01T11:28:48.694Z,90.90
2018-09-01T11:31:16.868Z,89.60
2018-09-01T11:33:45.064Z,90.40
2018-09-01T11:36:13.249Z,90.10
2018-09-01T11:38:41.478Z,86.50
2018-09-01T11:41:09.666Z,88.20
2018-09-01T11:43:37.858Z,88.70
2018-09-01T11:46:06.310Z,89.00
2018-09-01T11:48:34.810Z,90.10
2018-09-01T11:51:02.978Z,89.90
2018-09-01T11:53:31.224Z,89.70
2018-09-01T11:55:59.292Z,89.00
2018-09-01T11:58:27.520Z,90.20
2018-09-01T12:00:55.587Z,88.70
2018-09-01T12:03:23.808Z,89.00
2018-09-01T12:05:51.945Z,88.70
2018-09-01T12:08:20.141Z,89.10
2018-09-01T12:10:48.344Z,90.30
2018-09-01T12:13:16.533Z,88.70
2018-09-01T12:15:44.782Z,88.60
2018-09-01T12:18:12.882Z,87.10
2018-09-01T12:20:41.262Z,89.50
2018-09-01T12:23:09.534Z,89.00
2018-09-01T12:25:37.733Z,88.50
2018-09-01T12:28:05.933Z,88.40
2018-09-01T12:30:34.090Z,87.40
2018-09-01T12:33:02.258Z,87.90
2018-09-01T12:35:30.529Z,88.30
2018-09-01T12:37:58.611Z,87.70
2018-09-01T12:40:26.802Z,87.00
2018-09-01T12:42:54.965Z,88.90
2018-09-01T12:45:23.182Z,89.80
2018-09-01T12:47:51.373Z,88.20
2018-09-01T12:50:19.551Z,88.70
2018-09-01T12:52:47.790Z,89.30
2018-09-01T12:55:15.984Z,88.90
2018-09-01T12:57:44.151Z,88.40
2018-09-01T13:00:12.357Z,87.80
2018-09-01T13:02:40.534Z,88.50
2018-09-01T13:05:08.769Z,88.90
2018-09-01T13:07:36.949Z,89.40
2018-09-01T13:10:05.178Z,89.30
2018-09-01T13:12:33.342Z,89.10
2018-09-01T13:15:01.528Z,89.80
2018-09-01T13:17:29.692Z,89.00
2018-09-01T13:19:57.867Z,88.10
2018-09-01T13:22:26.038Z,88.20
2018-09-01T13:24:54.215Z,87.30
2018-09-01T13:27:22.378Z,87.00
2018-09-01T13:29:50.559Z,86.20
2018-09-01T13:32:18.732Z,88.60
2018-09-01T13:34:46.918Z,87.60
2018-09-01T13:37:15.085Z,86.20
2018-09-01T13:39:43.258Z,86.40
2018-09-01T13:42:11.438Z,86.20
2018-09-01T13:44:39.655Z,85.90
2018-09-01T13:47:07.808Z,86.50
2018-09-01T13:49:35.962Z,86.90
2018-09-01T13:52:04.114Z,87.00
2018-09-01T13:54:32.274Z,86.80
2018-09-01T13:57:00.465Z,88.20
2018-09-01T13:59:28.602Z,87.30
2018-09-01T14:01:56.756Z,88.70
2018-09-01T14:04:24.906Z,88.90
2018-09-01T14:06:53.050Z,88.30
2018-09-01T14:09:21.185Z,87.00
2018-09-01T14:11:49.335Z,85.40
2018-09-01T14:14:17.518Z,89.40
2018-09-01T14:16:45.602Z,87.80
2018-09-01T14:19:13.770Z,87.60
2018-09-01T14:21:41.923Z,88.10
2018-09-01T14:24:10.054Z,87.70
2018-09-01T14:26:38.221Z,89.00
2018-09-01T14:29:06.659Z,89.80
2018-09-01T14:31:34.838Z,89.30
2018-09-01T14:34:02.993Z,88.70
2018-09-01T14:36:31.200Z,87.80
2018-09-01T14:38:59.287Z,88.50
2018-09-01T14:41:27.430Z,88.80
2018-09-01T14:43:55.595Z,89.40
2018-09-01T14:46:23.737Z,89.50
2018-09-01T14:48:51.897Z,89.90
2018-09-01T14:51:20.053Z,90.10
2018-09-01T14:53:48.211Z,90.50
2018-09-01T14:56:16.370Z,90.20
2018-09-01T14:58:44.522Z,90.40
2018-09-01T15:01:12.703Z,90.70
2018-09-01T15:03:40.849Z,88.90
2018-09-01T15:06:09.015Z,89.00
2018-09-01T15:08:37.191Z,90.20
2018-09-01T15:11:05.366Z,88.70
2018-09-01T15:13:33.510Z,89.70
2018-09-01T15:16:01.650Z,87.90
2018-09-01T15:18:29.794Z,86.90
2018-09-01T15:20:57.942Z,89.50
2018-09-01T15:23:26.306Z,88.70
2018-09-01T15:25:54.438Z,89.60
2018-09-01T15:28:22.816Z,89.00
2018-09-01T15:30:50.912Z,90.10
2018-09-01T15:33:19.090Z,90.40
2018-09-01T15:35:47.264Z,89.90
2018-09-01T15:38:15.414Z,89.40
2018-09-01T15:40:43.602Z,90.00
2018-09-01T15:43:11.718Z,90.30
2018-09-01T15:45:39.870Z,90.30
2018-09-01T15:48:08.059Z,90.40
2018-09-01T15:50:36.379Z,90.20
2018-09-01T15:53:04.575Z,90.50
2018-09-01T15:55:32.678Z,90.20
2018-09-01T15:58:00.843Z,88.80
2018-09-01T16:00:28.991Z,89.50
2018-09-01T16:02:57.149Z,89.50
2018-09-01T16:05:25.282Z,91.20
2018-09-01T16:07:53.442Z,90.60
2018-09-01T16:10:21.594Z,91.10
2018-09-01T16:12:49.754Z,91.00
2018-09-01T16:15:17.882Z,91.00
2018-09-01T16:17:46.022Z,91.20
2018-09-01T16:20:14.158Z,91.10
2018-09-01T16:22:42.298Z,91.00
2018-09-01T16:25:10.478Z,91.20
2018-09-01T16:27:38.639Z,90.90
2018-09-01T16:30:06.808Z,91.10
2018-09-01T16:32:34.958Z,91.00
2018-09-01T16:35:03.096Z,91.10
2018-09-01T16:37:31.242Z,91.20
2018-09-01T16:39:59.451Z,91.00
2018-09-01T16:42:27.590Z,91.20
2018-09-01T16:44:55.734Z,91.10
2018-09-01T16:47:23.910Z,91.00
2018-09-01T16:49:52.049Z,91.10
2018-09-01T16:52:20.312Z,91.30
2018-09-01T16:54:48.437Z,91.10
2018-09-01T16:57:16.605Z,91.40
2018-09-01T16:59:44.775Z,91.70
2018-09-01T17:02:12.964Z,91.40
2018-09-01T17:04:41.118Z,91.60
2018-09-01T17:07:09.317Z,91.20
2018-09-01T17:09:37.490Z,91.10
2018-09-01T17:12:05.663Z,90.90
2018-09-01T17:14:33.858Z,90.90
2018-09-01T17:17:02.046Z,91.10
2018-09-01T17:19:30.466Z,91.00
2018-09-01T17:21:58.652Z,91.20
2018-09-01T17:24:26.831Z,91.20
2018-09-01T17:26:55.011Z,91.10
2018-09-01T17:29:23.190Z,91.20
2018-09-01T17:31:51.387Z,91.50
2018-09-01T17:34:19.566Z,92.20
2018-09-01T17:36:47.741Z,91.90
2018-09-01T17:39:15.945Z,92.30
2018-09-01T17:41:44.138Z,92.20
2018-09-01T17:44:12.314Z,93.10
2018-09-01T17:46:40.491Z,94.20
2018-09-01T17:49:08.739Z,93.60
2018-09-01T17:51:36.993Z,93.40
2018-09-01T17:54:05.156Z,93.70
2018-09-01T17:56:33.377Z,93.70
2018-09-01T17:59:01.629Z,93.50
2018-09-01T18:01:30.524Z,94.20
2018-09-01T18:03:58.695Z,93.90
2018-09-01T18:06:26.853Z,93.90
2018-09-01T18:08:55.029Z,93.90
2018-09-01T18:11:23.188Z,94.20
2018-09-01T18:13:51.358Z,94.20
2018-09-01T18:16:19.668Z,94.40
2018-09-01T18:18:47.810Z,94.90
2018-09-01T18:21:16.043Z,94.70
2018-09-01T18:23:44.192Z,94.70
2018-09-01T18:26:12.428Z,94.60
2018-09-01T18:28:40.578Z,94.80
2018-09-01T18:31:08.798Z,95.20
2018-09-01T18:33:36.954Z,95.50
2018-09-01T18:36:05.103Z,95.70
2018-09-01T18:38:33.261Z,95.90
2018-09-01T18:41:01.434Z,96.10
2018-09-01T18:43:29.619Z,95.80
2018-09-01T18:45:57.750Z,96.00
2018-09-01T18:48:25.924Z,96.30
2018-09-01T18:50:54.072Z,96.50
2018-09-01T18:53:22.276Z,96.60
2018-09-01T18:55:50.458Z,96.50
2018-09-01T18:58:18.632Z,96.40
2018-09-01T19:00:46.830Z,96.90
2018-09-01T19:03:15.091Z,97.40
2018-09-01T19:05:44.246Z,97.00
2018-09-01T19:08:12.426Z,97.20
2018-09-01T19:10:40.635Z,97.80
2018-09-01T19:13:08.903Z,97.80
2018-09-01T19:15:37.086Z,97.60
2018-09-01T19:18:05.461Z,97.70
2018-09-01T19:20:33.641Z,97.60
2018-09-01T19:23:02.070Z,98.10
2018-09-01T19:25:30.245Z,98.10
2018-09-01T19:27:58.414Z,98.50
2018-09-01T19:30:26.610Z,98.80
2018-09-01T19:32:54.852Z,98.80
2018-09-01T19:35:23.031Z,99.20
2018-09-01T19:37:51.210Z,99.20
2018-09-01T19:40:19.399Z,99.30
2018-09-01T19:42:47.598Z,99.50
2018-09-01T19:45:15.894Z,99.80
2018-09-01T19:47:44.011Z,99.80
2018-09-01T19:50:12.187Z,99.90
2018-09-01T19:52:40.383Z,99.90
2018-09-01T19:55:08.568Z,99.90
2018-09-01T19:57:36.764Z,99.90
2018-09-01T20:00:05.706Z,99.90
2018-09-01T20:02:33.894Z,99.90
2018-09-01T20:05:02.222Z,99.90
2018-09-01T20:07:30.350Z,99.90
2018-09-01T20:09:58.526Z,99.90
2018-09-01T20:12:26.746Z,99.90
2018-09-01T20:14:54.963Z,99.90
2018-09-01T20:17:23.130Z,99.90
2018-09-01T20:19:51.310Z,99.90
2018-09-01T20:22:19.505Z,99.90
2018-09-01T20:24:47.678Z,99.90
2018-09-01T20:27:15.843Z,99.90
2018-09-01T20:29:44.031Z,99.90
2018-09-01T20:32:12.211Z,99.90
2018-09-01T20:34:45.621Z,99.90
2018-09-01T20:37:14.611Z,99.90
2018-09-01T20:39:43.274Z,99.90
2018-09-01T20:42:11.462Z,99.90
2018-09-01T20:44:39.658Z,99.90
2018-09-01T20:47:07.870Z,99.90
2018-09-01T20:49:36.065Z,99.90
2018-09-01T20:52:04.326Z,99.90
2018-09-01T20:54:32.394Z,99.90
2018-09-01T20:57:00.621Z,99.90
2018-09-01T20:59:28.775Z,99.90
2018-09-01T21:01:56.926Z,99.90
2018-09-01T21:04:25.102Z,99.90
2018-09-01T21:06:53.246Z,99.90
2018-09-01T21:09:21.407Z,99.90
2018-09-01T21:11:49.570Z,99.90
2018-09-01T21:14:17.731Z,99.90
2018-09-01T21:16:45.941Z,99.90
2018-09-01T21:19:14.054Z,99.90
2018-09-01T21:21:42.230Z,99.90
2018-09-01T21:24:10.391Z,99.90
2018-09-01T21:26:38.569Z,99.90
2018-09-01T21:29:06.739Z,99.90
2018-09-01T21:31:34.909Z,99.90
2018-09-01T21:34:03.114Z,99.90
2018-09-01T21:36:31.235Z,99.90
